Time;durP1;ratioP1;P1;durP2;ratioP2;P2;SDS_P1;SDS_P2;PMS_P1;PMS_P2;Temp;Humidity;BMP_temperature;BMP_pressure;BME280_temperature;BME280_humidity;BME280_pressure;Samples;Min_cycle;Max_cycle;Signal;HPM_P1;HPM_P2
2022/08/17 00:01:50;;;;;;;;;;;21.90;66.70;;;;;;5052071;28;20007;-86
2022/08/17 00:04:17;;;;;;;;;;;22.00;66.50;;;;;;5068820;28;20057;-86
2022/08/17 00:06:43;;;;;;;;;;;21.90;67.00;;;;;;5052654;28;19912;-86
2022/08/17 00:09:08;;;;;;;;;;;21.80;67.70;;;;;;5066229;28;21309;-87
2022/08/17 00:11:39;;;;;;;;;;;21.80;67.60;;;;;;5048210;28;20142;-87
2022/08/17 00:14:07;;;;;;;;;;;21.70;67.80;;;;;;5063049;28;19923;-87
2022/08/17 00:16:34;;;;;;;;;;;21.70;67.80;;;;;;5049427;28;19919;-86
2022/08/17 00:19:00;;;;;;;;;;;21.60;68.10;;;;;;5062554;28;19919;-87
2022/08/17 00:21:26;;;;;;;;;;;21.60;67.40;;;;;;5068625;28;19920;-86
2022/08/17 00:23:52;;;;;;;;;;;21.70;67.70;;;;;;5049069;28;19913;-87
2022/08/17 00:26:19;;;;;;;;;;;21.60;68.00;;;;;;5066423;28;19917;-87
2022/08/17 00:28:44;;;;;;;;;;;21.70;67.90;;;;;;5045716;28;19920;-87
2022/08/17 00:31:10;;;;;;;;;;;21.70;67.90;;;;;;5049146;28;19925;-87
2022/08/17 00:33:37;;;;;;;;;;;21.60;68.50;;;;;;5048941;28;19961;-87
2022/08/17 00:36:04;;;;;;;;;;;21.60;69.10;;;;;;5066373;28;19919;-86
2022/08/17 00:38:30;;;;;;;;;;;21.60;68.90;;;;;;5062287;28;19914;-87
2022/08/17 00:40:57;;;;;;;;;;;21.60;69.30;;;;;;5064437;28;19970;-87
2022/08/17 00:43:35;;;;;;;;;;;21.60;68.70;;;;;;5062708;28;19913;-87
2022/08/17 00:46:04;;;;;;;;;;;21.70;68.50;;;;;;5046940;28;19916;-86
2022/08/17 00:48:30;;;;;;;;;;;21.70;68.50;;;;;;5065114;28;19928;-86
2022/08/17 00:50:58;;;;;;;;;;;21.70;68.60;;;;;;5053060;28;20283;-87
2022/08/17 00:53:28;;;;;;;;;;;21.70;68.70;;;;;;5063863;28;20459;-86
2022/08/17 00:55:54;;;;;;;;;;;21.70;68.80;;;;;;5051212;28;20187;-87
2022/08/17 00:58:20;;;;;;;;;;;21.60;69.00;;;;;;5066333;28;19999;-87
2022/08/17 01:00:46;;;;;;;;;;;21.60;68.80;;;;;;5048859;28;20278;-86
2022/08/17 01:03:24;;;;;;;;;;;21.50;69.30;;;;;;5051240;28;19913;-87
2022/08/17 01:05:51;;;;;;;;;;;21.50;70.00;;;;;;5048307;28;20214;-86
2022/08/17 01:08:18;;;;;;;;;;;21.50;70.40;;;;;;5047809;28;20294;-87
2022/08/17 01:10:46;;;;;;;;;;;21.50;69.90;;;;;;5045541;28;19920;-87
2022/08/17 01:13:12;;;;;;;;;;;21.50;69.80;;;;;;5065177;28;19920;-87
2022/08/17 01:15:41;;;;;;;;;;;21.50;68.70;;;;;;5042685;28;19913;-87
2022/08/17 01:18:08;;;;;;;;;;;21.50;68.50;;;;;;5064290;28;19920;-87
2022/08/17 01:20:33;;;;;;;;;;;21.50;68.80;;;;;;5070462;28;19918;-88
2022/08/17 01:22:59;;;;;;;;;;;21.40;69.40;;;;;;5068108;28;20002;-88
2022/08/17 01:25:26;;;;;;;;;;;21.40;69.40;;;;;;5050119;28;19951;-85
2022/08/17 01:27:51;;;;;;;;;;;21.40;69.50;;;;;;5065677;28;19966;-85
2022/08/17 01:30:17;;;;;;;;;;;21.30;69.40;;;;;;5069850;28;20310;-84
2022/08/17 01:32:42;;;;;;;;;;;21.30;69.30;;;;;;5064023;28;20213;-85
2022/08/17 01:35:08;;;;;;;;;;;21.20;69.30;;;;;;5050415;28;19913;-85
2022/08/17 01:37:38;;;;;;;;;;;21.20;69.80;;;;;;5047170;28;20057;-85
2022/08/17 01:40:12;;;;;;;;;;;21.20;70.20;;;;;;5061472;28;19920;-85
2022/08/17 01:42:40;;;;;;;;;;;21.20;69.90;;;;;;5059100;28;20003;-84
2022/08/17 01:45:17;;;;;;;;;;;21.20;70.10;;;;;;5057934;28;19912;-85
2022/08/17 01:47:43;;;;;;;;;;;21.10;70.10;;;;;;5051552;28;19917;-85
2022/08/17 01:50:11;;;;;;;;;;;21.20;70.00;;;;;;5061440;28;19913;-86
2022/08/17 01:52:37;;;;;;;;;;;21.10;70.10;;;;;;5039770;28;19939;-86
2022/08/17 01:55:03;;;;;;;;;;;21.10;70.50;;;;;;5070399;28;19913;-86
2022/08/17 01:57:28;;;;;;;;;;;21.00;70.60;;;;;;5063311;28;20378;-86
2022/08/17 01:59:54;;;;;;;;;;;20.90;71.10;;;;;;5064224;28;19923;-85
2022/08/17 02:02:19;;;;;;;;;;;20.90;71.00;;;;;;5044228;28;20367;-87
2022/08/17 02:04:45;;;;;;;;;;;20.90;70.90;;;;;;5048711;28;20256;-85
2022/08/17 02:07:10;;;;;;;;;;;20.80;71.40;;;;;;5043292;28;19920;-85
2022/08/17 02:09:36;;;;;;;;;;;20.80;71.50;;;;;;5046461;28;19929;-86
2022/08/17 02:12:02;;;;;;;;;;;20.80;71.50;;;;;;5063897;28;21369;-86
2022/08/17 02:14:28;;;;;;;;;;;20.70;71.80;;;;;;5059449;28;19913;-86
2022/08/17 02:16:54;;;;;;;;;;;20.70;71.80;;;;;;5066948;28;19928;-86
2022/08/17 02:19:20;;;;;;;;;;;20.70;71.80;;;;;;5044597;28;19920;-85
2022/08/17 02:21:46;;;;;;;;;;;20.60;71.70;;;;;;5045089;28;19966;-85
2022/08/17 02:24:15;;;;;;;;;;;20.60;71.80;;;;;;5046235;28;19912;-85
2022/08/17 02:26:41;;;;;;;;;;;20.60;72.30;;;;;;5060202;28;20343;-86
2022/08/17 02:29:06;;;;;;;;;;;20.60;72.40;;;;;;5049862;28;19918;-86
2022/08/17 02:31:32;;;;;;;;;;;20.50;72.60;;;;;;5062069;28;19920;-85
2022/08/17 02:33:57;;;;;;;;;;;20.50;72.20;;;;;;5065690;28;19958;-86
2022/08/17 02:36:23;;;;;;;;;;;20.50;73.20;;;;;;5048203;28;20077;-85
2022/08/17 02:38:48;;;;;;;;;;;20.50;72.40;;;;;;5047868;28;19974;-85
2022/08/17 02:41:14;;;;;;;;;;;20.50;72.90;;;;;;5044516;28;19919;-86
2022/08/17 02:43:39;;;;;;;;;;;20.50;72.90;;;;;;5062676;28;19919;-85
2022/08/17 02:46:05;;;;;;;;;;;20.50;73.00;;;;;;5044564;28;20299;-85
2022/08/17 02:48:30;;;;;;;;;;;20.50;72.60;;;;;;5061332;28;19924;-85
2022/08/17 02:50:55;;;;;;;;;;;20.50;72.80;;;;;;5046977;28;19917;-84
2022/08/17 02:53:21;;;;;;;;;;;20.40;73.10;;;;;;5045958;28;19920;-85
2022/08/17 02:55:46;;;;;;;;;;;20.40;72.90;;;;;;5060143;28;19912;-85
2022/08/17 02:58:12;;;;;;;;;;;20.30;73.30;;;;;;5070605;28;19958;-85
2022/08/17 03:00:42;;;;;;;;;;;20.30;73.30;;;;;;5068183;28;19922;-85
2022/08/17 03:03:09;;;;;;;;;;;20.30;73.70;;;;;;5065122;28;19913;-87
2022/08/17 03:05:36;;;;;;;;;;;20.30;74.20;;;;;;5047231;28;19923;-85
2022/08/17 03:08:02;;;;;;;;;;;20.20;74.70;;;;;;5050143;28;20438;-85
2022/08/17 03:10:28;;;;;;;;;;;20.20;74.40;;;;;;5063915;28;20011;-86
2022/08/17 03:12:54;;;;;;;;;;;20.30;74.00;;;;;;5049245;28;19993;-86
2022/08/17 03:15:22;;;;;;;;;;;20.30;73.80;;;;;;5064842;28;19955;-86
2022/08/17 03:17:47;;;;;;;;;;;20.20;73.70;;;;;;5064338;28;19923;-86
2022/08/17 03:20:14;;;;;;;;;;;20.30;74.00;;;;;;5048426;28;19912;-86
2022/08/17 03:22:45;;;;;;;;;;;20.20;74.40;;;;;;5048271;28;20306;-86
2022/08/17 03:25:12;;;;;;;;;;;20.20;74.30;;;;;;5051173;28;19917;-85
2022/08/17 03:27:38;;;;;;;;;;;20.20;74.60;;;;;;5048993;28;19991;-84
2022/08/17 03:30:04;;;;;;;;;;;20.10;74.60;;;;;;5054198;28;20366;-85
2022/08/17 03:32:35;;;;;;;;;;;20.10;74.40;;;;;;5078786;28;19916;-84
2022/08/17 03:35:01;;;;;;;;;;;20.10;74.20;;;;;;5074250;28;19920;-84
2022/08/17 03:37:26;;;;;;;;;;;20.10;74.20;;;;;;5065379;28;19913;-85
2022/08/17 03:39:53;;;;;;;;;;;20.10;74.40;;;;;;5061322;28;19920;-84
2022/08/17 03:42:20;;;;;;;;;;;20.00;74.90;;;;;;5050880;28;19919;-84
2022/08/17 03:44:49;;;;;;;;;;;20.00;75.10;;;;;;5050538;28;19962;-85
2022/08/17 03:58:01;;;;;;;;;;;20.00;75.00;;;;;;5015937;28;19920;-78
2022/08/17 04:00:26;;;;;;;;;;;20.00;75.40;;;;;;5015356;28;19913;-78
2022/08/17 04:02:52;;;;;;;;;;;20.00;75.80;;;;;;5022743;28;19921;-78
2022/08/17 04:05:18;;;;;;;;;;;20.00;75.50;;;;;;5007821;28;20271;-78
2022/08/17 04:07:43;;;;;;;;;;;20.00;75.90;;;;;;5030474;28;19918;-77
2022/08/17 04:10:08;;;;;;;;;;;20.10;75.60;;;;;;5010945;28;19917;-78
2022/08/17 04:12:45;;;;;;;;;;;20.10;75.50;;;;;;5021255;28;19925;-77
2022/08/17 04:15:11;;;;;;;;;;;20.00;75.60;;;;;;5010292;28;19937;-78
2022/08/17 04:17:37;;;;;;;;;;;20.00;75.60;;;;;;5011041;28;19918;-78
2022/08/17 04:20:02;;;;;;;;;;;20.10;75.40;;;;;;5020418;28;19917;-78
2022/08/17 04:22:28;;;;;;;;;;;20.10;75.30;;;;;;5022772;28;19965;-77
2022/08/17 04:24:53;;;;;;;;;;;20.10;75.30;;;;;;5005618;28;19953;-77
2022/08/17 04:27:19;;;;;;;;;;;20.10;75.00;;;;;;5014074;28;20456;-77
2022/08/17 04:29:44;;;;;;;;;;;20.10;74.90;;;;;;5008970;28;20016;-77
2022/08/17 04:32:10;;;;;;;;;;;20.10;75.60;;;;;;5008457;28;19913;-77
2022/08/17 04:34:35;;;;;;;;;;;20.10;75.70;;;;;;5008185;28;19941;-78
2022/08/17 04:37:01;;;;;;;;;;;20.10;75.40;;;;;;5013702;28;19936;-77
2022/08/17 04:39:27;;;;;;;;;;;20.00;75.70;;;;;;5021237;28;19917;-76
2022/08/17 04:42:05;;;;;;;;;;;20.00;75.70;;;;;;5025469;28;19944;-78
2022/08/17 04:44:31;;;;;;;;;;;20.00;75.60;;;;;;5005224;28;19926;-77
2022/08/17 04:46:57;;;;;;;;;;;20.00;75.20;;;;;;5024625;28;19913;-77
2022/08/17 04:49:22;;;;;;;;;;;20.00;75.40;;;;;;5025861;28;19945;-78
2022/08/17 04:51:48;;;;;;;;;;;20.00;75.20;;;;;;5014807;28;20004;-78
2022/08/17 04:54:15;;;;;;;;;;;20.00;75.70;;;;;;5008361;28;20306;-79
2022/08/17 04:56:40;;;;;;;;;;;20.00;76.00;;;;;;5019797;28;20076;-78
2022/08/17 04:59:08;;;;;;;;;;;20.10;75.40;;;;;;5013188;28;20569;-79
2022/08/17 05:01:35;;;;;;;;;;;20.10;75.70;;;;;;5009737;28;19967;-79
2022/08/17 05:04:03;;;;;;;;;;;20.10;75.60;;;;;;5011756;28;19914;-77
2022/08/17 05:06:29;;;;;;;;;;;20.20;75.30;;;;;;5009390;28;20326;-77
2022/08/17 05:08:55;;;;;;;;;;;20.30;75.60;;;;;;5010388;28;19924;-77
2022/08/17 05:11:21;;;;;;;;;;;20.30;75.60;;;;;;5007664;28;20004;-77
2022/08/17 05:13:48;;;;;;;;;;;20.40;75.60;;;;;;5007456;28;19921;-78
2022/08/17 05:16:14;;;;;;;;;;;20.40;75.50;;;;;;5008654;28;19918;-77
2022/08/17 05:18:40;;;;;;;;;;;20.50;75.20;;;;;;5009852;28;20274;-78
2022/08/17 05:21:05;;;;;;;;;;;20.60;75.20;;;;;;5010228;28;19973;-77
2022/08/17 05:23:31;;;;;;;;;;;20.60;74.80;;;;;;5000604;28;20673;-79
2022/08/17 05:25:57;;;;;;;;;;;20.60;74.80;;;;;;5002954;28;20000;-77
2022/08/17 05:28:24;;;;;;;;;;;20.80;74.70;;;;;;5003712;28;20020;-78
2022/08/17 05:30:50;;;;;;;;;;;20.80;74.90;;;;;;5008858;28;19913;-77
2022/08/17 05:33:19;;;;;;;;;;;20.70;74.70;;;;;;5012762;28;19917;-76
2022/08/17 05:35:46;;;;;;;;;;;20.80;74.80;;;;;;5007817;28;19913;-78
2022/08/17 05:38:12;;;;;;;;;;;20.80;75.20;;;;;;5001669;28;19968;-78
2022/08/17 05:40:37;;;;;;;;;;;20.80;74.80;;;;;;5027530;28;20385;-77
2022/08/17 05:43:14;;;;;;;;;;;20.80;75.00;;;;;;5010974;28;19921;-77
2022/08/17 05:45:43;;;;;;;;;;;20.90;74.40;;;;;;5001228;28;21775;-77
2022/08/17 05:48:11;;;;;;;;;;;20.90;74.80;;;;;;4996560;28;21308;-78
2022/08/17 05:50:46;;;;;;;;;;;20.90;74.40;;;;;;5015077;28;20107;-78
2022/08/17 05:53:37;;;;;;;;;;;21.00;74.20;;;;;;5011758;28;19922;-77
2022/08/17 05:56:12;;;;;;;;;;;21.00;73.50;;;;;;4980399;28;19930;-77
2022/08/17 05:58:46;;;;;;;;;;;21.10;73.20;;;;;;5003584;28;19997;-77
2022/08/17 06:01:35;;;;;;;;;;;21.10;73.80;;;;;;5005754;28;20430;-77
2022/08/17 06:04:00;;;;;;;;;;;21.20;73.60;;;;;;4991445;28;19914;-78
2022/08/17 06:06:35;;;;;;;;;;;21.30;72.70;;;;;;5008224;28;19914;-77
2022/08/17 06:09:09;;;;;;;;;;;21.50;71.30;;;;;;5006314;28;19929;-78
2022/08/17 06:11:44;;;;;;;;;;;21.60;71.10;;;;;;5009863;28;19924;-78
2022/08/17 06:14:28;;;;;;;;;;;21.70;71.50;;;;;;5008791;28;19953;-77
2022/08/17 06:17:03;;;;;;;;;;;21.80;71.30;;;;;;5017743;28;19921;-78
2022/08/17 06:19:31;;;;;;;;;;;21.80;71.70;;;;;;5005953;28;19920;-77
2022/08/17 06:21:57;;;;;;;;;;;21.90;71.60;;;;;;5007074;28;19924;-76
2022/08/17 06:24:29;;;;;;;;;;;22.00;71.70;;;;;;5003559;28;19913;-77
2022/08/17 06:26:58;;;;;;;;;;;22.00;71.70;;;;;;5004015;28;19914;-76
2022/08/17 06:29:47;;;;;;;;;;;22.20;68.60;;;;;;5030345;28;20291;-75
2022/08/17 06:32:13;;;;;;;;;;;22.20;67.70;;;;;;5000752;28;19952;-78
2022/08/17 06:34:38;;;;;;;;;;;22.10;68.60;;;;;;5012340;28;19917;-77
2022/08/17 06:37:04;;;;;;;;;;;22.20;69.50;;;;;;5004352;28;19914;-78
2022/08/17 06:39:38;;;;;;;;;;;22.20;68.70;;;;;;5007767;28;19917;-77
2022/08/17 06:42:13;;;;;;;;;;;22.40;69.10;;;;;;5008868;28;19921;-77
2022/08/17 06:44:46;;;;;;;;;;;22.50;68.20;;;;;;5012007;28;19992;-76
2022/08/17 06:47:16;;;;;;;;;;;22.50;68.10;;;;;;5011118;28;20028;-78
2022/08/17 06:49:46;;;;;;;;;;;22.60;68.30;;;;;;5008544;28;20016;-78
2022/08/17 06:52:19;;;;;;;;;;;22.60;68.00;;;;;;5010015;28;20336;-76
2022/08/17 06:54:58;;;;;;;;;;;22.60;68.40;;;;;;5024671;28;19920;-78
2022/08/17 06:57:28;;;;;;;;;;;22.70;67.60;;;;;;5007827;28;20041;-76
2022/08/17 06:59:56;;;;;;;;;;;22.80;66.40;;;;;;5000056;28;19924;-77
2022/08/17 07:02:30;;;;;;;;;;;22.90;67.00;;;;;;5016358;28;19918;-77
2022/08/17 07:05:00;;;;;;;;;;;22.80;66.90;;;;;;4997932;28;19992;-78
2022/08/17 07:10:10;;;;;;;;;;;23.00;67.10;;;;;;5001334;28;19960;-77
2022/08/17 07:12:39;;;;;;;;;;;22.90;66.70;;;;;;4999962;28;20297;-77
2022/08/17 07:15:25;;;;;;;;;;;22.90;66.80;;;;;;5010682;28;19917;-77
2022/08/17 07:17:51;;;;;;;;;;;23.00;67.40;;;;;;5002694;28;19922;-79
2022/08/17 07:20:21;;;;;;;;;;;23.10;67.40;;;;;;5005382;28;19917;-77
2022/08/17 07:22:54;;;;;;;;;;;23.10;67.00;;;;;;5008744;28;19917;-78
2022/08/17 07:25:20;;;;;;;;;;;23.10;67.40;;;;;;5006490;28;19913;-78
2022/08/17 07:27:58;;;;;;;;;;;23.20;66.50;;;;;;5021773;28;19913;-78
2022/08/17 07:30:25;;;;;;;;;;;23.20;67.20;;;;;;4993922;28;19917;-79
2022/08/17 07:32:57;;;;;;;;;;;23.20;67.10;;;;;;5000717;28;19921;-77
2022/08/17 07:35:28;;;;;;;;;;;23.30;66.60;;;;;;5002473;28;19920;-78
2022/08/17 07:38:09;;;;;;;;;;;23.30;66.40;;;;;;5003895;28;20012;-77
2022/08/17 07:40:38;;;;;;;;;;;23.40;66.20;;;;;;5010594;28;19925;-77
2022/08/17 07:43:10;;;;;;;;;;;23.50;65.90;;;;;;5005530;28;20016;-79
2022/08/17 07:48:24;;;;;;;;;;;23.70;65.50;;;;;;5005793;28;19928;-78
2022/08/17 07:50:52;;;;;;;;;;;23.90;64.60;;;;;;5000260;28;19917;-77
2022/08/17 07:53:22;;;;;;;;;;;24.00;64.10;;;;;;4998068;28;19921;-77
2022/08/17 07:55:49;;;;;;;;;;;24.00;63.60;;;;;;5003207;28;20030;-78
2022/08/17 07:58:18;;;;;;;;;;;24.00;63.00;;;;;;5015328;28;20330;-76
2022/08/17 08:00:44;;;;;;;;;;;24.20;63.30;;;;;;5002237;28;19917;-76
2022/08/17 08:03:14;;;;;;;;;;;24.40;61.90;;;;;;5001098;28;20404;-76
2022/08/17 08:05:51;;;;;;;;;;;24.60;59.90;;;;;;5003924;28;19921;-77
2022/08/17 08:08:24;;;;;;;;;;;24.60;58.80;;;;;;5001513;28;19987;-78
2022/08/17 08:10:57;;;;;;;;;;;24.70;59.10;;;;;;5003234;28;19913;-77
2022/08/17 08:13:24;;;;;;;;;;;24.90;58.00;;;;;;4999341;28;19921;-77
2022/08/17 08:15:52;;;;;;;;;;;25.00;57.40;;;;;;5010735;28;19960;-76
2022/08/17 08:18:38;;;;;;;;;;;25.10;57.20;;;;;;4998225;28;20008;-77
2022/08/17 08:21:09;;;;;;;;;;;25.20;56.90;;;;;;4999760;28;19917;-78
2022/08/17 08:23:34;;;;;;;;;;;25.20;56.10;;;;;;5005239;28;19980;-77
2022/08/17 08:26:12;;;;;;;;;;;25.40;55.30;;;;;;5006254;28;19917;-78
2022/08/17 08:28:43;;;;;;;;;;;25.50;54.80;;;;;;5020569;28;19924;-77
2022/08/17 08:31:12;;;;;;;;;;;25.50;54.90;;;;;;5000423;28;19989;-77
2022/08/17 08:34:03;;;;;;;;;;;25.50;54.40;;;;;;5014164;28;19914;-77
2022/08/17 08:36:52;;;;;;;;;;;25.50;54.40;;;;;;4974214;28;19924;-78
2022/08/17 08:39:29;;;;;;;;;;;25.50;54.70;;;;;;5000078;28;20092;-77
2022/08/17 08:41:58;;;;;;;;;;;25.50;54.20;;;;;;5003271;28;19917;-77
2022/08/17 08:44:35;;;;;;;;;;;25.60;53.80;;;;;;5010057;28;19983;-77
2022/08/17 08:47:18;;;;;;;;;;;25.80;53.70;;;;;;5010104;28;20258;-76
2022/08/17 08:49:43;;;;;;;;;;;26.00;52.70;;;;;;5004727;28;20012;-77
2022/08/17 08:52:21;;;;;;;;;;;26.00;52.20;;;;;;5010030;28;20020;-78
2022/08/17 08:54:50;;;;;;;;;;;26.10;51.80;;;;;;5004121;28;19913;-77
2022/08/17 08:57:20;;;;;;;;;;;26.10;52.30;;;;;;5006943;28;19913;-77
2022/08/17 08:59:48;;;;;;;;;;;26.20;52.10;;;;;;5003559;28;19914;-77
2022/08/17 09:02:39;;;;;;;;;;;26.20;52.40;;;;;;5009921;28;19925;-77
2022/08/17 09:05:08;;;;;;;;;;;26.40;52.70;;;;;;5005327;28;19952;-77
2022/08/17 09:07:52;;;;;;;;;;;26.40;52.00;;;;;;5014355;28;19921;-77
2022/08/17 09:10:24;;;;;;;;;;;26.50;52.10;;;;;;5025850;28;19921;-77
2022/08/17 09:12:49;;;;;;;;;;;26.60;51.40;;;;;;5007234;28;19960;-76
2022/08/17 09:15:19;;;;;;;;;;;26.80;51.20;;;;;;4999813;28;20007;-76
2022/08/17 09:18:00;;;;;;;;;;;26.80;51.30;;;;;;5004724;28;20484;-77
2022/08/17 09:20:28;;;;;;;;;;;27.00;51.30;;;;;;5007725;28;19920;-78
2022/08/17 09:23:07;;;;;;;;;;;27.00;51.00;;;;;;5009259;28;19936;-78
2022/08/17 09:25:41;;;;;;;;;;;27.00;53.10;;;;;;5012056;28;19917;-78
2022/08/17 09:28:12;;;;;;;;;;;26.90;52.20;;;;;;5009745;28;19924;-78
2022/08/17 09:30:41;;;;;;;;;;;26.80;51.40;;;;;;5006180;28;19961;-78
2022/08/17 09:33:08;;;;;;;;;;;26.80;52.20;;;;;;5006807;28;21034;-78
2022/08/17 09:35:41;;;;;;;;;;;26.70;52.10;;;;;;5011559;28;19921;-78
2022/08/17 09:38:12;;;;;;;;;;;26.60;52.40;;;;;;5011797;28;19913;-78
2022/08/17 09:41:00;;;;;;;;;;;26.50;52.80;;;;;;5029679;28;20304;-78
2022/08/17 09:43:29;;;;;;;;;;;26.50;53.00;;;;;;5009687;28;19976;-78
2022/08/17 09:46:01;;;;;;;;;;;26.50;52.80;;;;;;5011211;28;19993;-78
2022/08/17 09:48:30;;;;;;;;;;;26.50;53.20;;;;;;5009010;28;19918;-79
2022/08/17 09:51:14;;;;;;;;;;;26.60;52.90;;;;;;5037673;23;19925;-83
2022/08/17 09:53:40;;;;;;;;;;;26.40;52.60;;;;;;5045790;28;19924;-84
2022/08/17 09:56:24;;;;;;;;;;;26.30;52.80;;;;;;5047197;28;19909;-83
2022/08/17 09:59:02;;;;;;;;;;;26.30;53.00;;;;;;5051257;28;19935;-84
2022/08/17 10:01:35;;;;;;;;;;;26.20;52.50;;;;;;5038812;28;20477;-83
2022/08/17 10:04:07;;;;;;;;;;;26.30;52.80;;;;;;5035803;28;19913;-84
2022/08/17 10:06:37;;;;;;;;;;;26.30;53.10;;;;;;5059375;28;19926;-85
2022/08/17 10:09:12;;;;;;;;;;;26.30;53.20;;;;;;5031016;28;19909;-84
2022/08/17 10:14:38;;;;;;;;;;;26.30;54.20;;;;;;5029503;28;20426;-83
2022/08/17 10:17:12;;;;;;;;;;;26.20;53.90;;;;;;5032336;28;19921;-83
2022/08/17 10:19:39;;;;;;;;;;;26.10;53.80;;;;;;5024103;28;19913;-83
2022/08/17 10:27:58;;;;;;;;;;;26.10;55.30;;;;;;5026669;28;19975;-84
2022/08/17 10:30:26;;;;;;;;;;;26.00;54.60;;;;;;5026559;28;19927;-83
2022/08/17 10:32:57;;;;;;;;;;;25.90;56.70;;;;;;5036761;28;19944;-83
2022/08/17 10:35:32;;;;;;;;;;;25.90;55.90;;;;;;5033100;28;19909;-83
2022/08/17 10:37:58;;;;;;;;;;;25.80;56.50;;;;;;5036772;28;19913;-84
2022/08/17 10:40:44;;;;;;;;;;;25.80;56.40;;;;;;5028035;28;19932;-83
2022/08/17 10:43:09;;;;;;;;;;;25.80;56.50;;;;;;5029645;28;19921;-84
2022/08/17 10:45:43;;;;;;;;;;;25.60;56.10;;;;;;5022136;28;20529;-85
2022/08/17 10:48:09;;;;;;;;;;;25.60;56.30;;;;;;5017608;28;20008;-84
2022/08/17 10:50:46;;;;;;;;;;;25.60;56.40;;;;;;5022145;28;20014;-84
2022/08/17 10:53:30;;;;;;;;;;;25.50;56.80;;;;;;5029974;28;19967;-85
2022/08/17 10:56:11;;;;;;;;;;;25.30;57.10;;;;;;5048545;28;19913;-85
2022/08/17 10:58:52;;;;;;;;;;;25.20;57.60;;;;;;5026068;28;20305;-85
2022/08/17 11:01:20;;;;;;;;;;;25.20;57.90;;;;;;5048956;28;19921;-84
2022/08/17 11:03:53;;;;;;;;;;;25.20;58.20;;;;;;5026164;28;19913;-87
2022/08/17 11:06:23;;;;;;;;;;;25.30;58.00;;;;;;5045701;28;19927;-86
2022/08/17 11:09:01;;;;;;;;;;;25.30;58.10;;;;;;5025953;28;20010;-86
2022/08/17 11:11:38;;;;;;;;;;;25.20;58.20;;;;;;5031210;28;20346;-86
2022/08/17 11:14:43;;;;;;;;;;;25.20;58.50;;;;;;5021788;28;20372;-87
2022/08/17 11:17:14;;;;;;;;;;;25.20;58.70;;;;;;4973087;28;19918;-87
2022/08/17 11:19:49;;;;;;;;;;;25.10;59.10;;;;;;4974345;28;20000;-87
2022/08/17 11:22:25;;;;;;;;;;;25.00;59.30;;;;;;5013899;28;19928;-88
2022/08/17 11:24:52;;;;;;;;;;;25.00;59.40;;;;;;5027346;28;19913;-86
2022/08/17 11:27:32;;;;;;;;;;;24.80;59.30;;;;;;5033193;28;19917;-86
2022/08/17 11:30:03;;;;;;;;;;;24.80;59.60;;;;;;5034737;28;20406;-86
2022/08/17 11:32:38;;;;;;;;;;;24.70;59.70;;;;;;5038727;28;19922;-88
2022/08/17 11:35:05;;;;;;;;;;;24.60;60.30;;;;;;5026555;28;19968;-85
2022/08/17 11:37:30;;;;;;;;;;;24.60;61.10;;;;;;5031897;28;19921;-85
2022/08/17 11:40:05;;;;;;;;;;;24.60;60.50;;;;;;5034838;28;20407;-85
2022/08/17 11:42:40;;;;;;;;;;;24.50;60.60;;;;;;5021850;28;19928;-83
2022/08/17 11:45:21;;;;;;;;;;;24.50;60.90;;;;;;5025882;28;19917;-83
2022/08/17 11:53:37;;;;;;;;;;;24.70;60.60;;;;;;5038068;28;19924;-83
2022/08/17 11:56:06;;;;;;;;;;;24.80;60.60;;;;;;5026694;28;19913;-83
2022/08/17 11:58:36;;;;;;;;;;;24.80;60.90;;;;;;5027421;28;19914;-83
2022/08/17 12:01:11;;;;;;;;;;;25.00;60.80;;;;;;5036032;28;19920;-83
2022/08/17 12:03:37;;;;;;;;;;;25.10;60.10;;;;;;5023571;28;19976;-84
2022/08/17 12:06:09;;;;;;;;;;;25.20;60.20;;;;;;5033961;28;19914;-83
2022/08/17 12:08:40;;;;;;;;;;;25.10;60.50;;;;;;5034159;28;19921;-83
2022/08/17 12:11:09;;;;;;;;;;;25.10;60.20;;;;;;5051944;28;20003;-83
2022/08/17 12:13:40;;;;;;;;;;;25.00;60.50;;;;;;5031123;28;19955;-83
2022/08/17 12:16:07;;;;;;;;;;;24.90;60.70;;;;;;5038413;28;19917;-83
2022/08/17 12:18:36;;;;;;;;;;;24.90;61.40;;;;;;5034027;28;20374;-83
2022/08/17 12:21:14;;;;;;;;;;;24.90;61.10;;;;;;5034027;28;19917;-82
2022/08/17 12:23:59;;;;;;;;;;;25.10;60.70;;;;;;5033335;28;19961;-83
2022/08/17 12:26:29;;;;;;;;;;;25.10;60.70;;;;;;5032237;28;19948;-87
2022/08/17 12:28:57;;;;;;;;;;;25.30;60.50;;;;;;5029124;28;19963;-84
2022/08/17 12:31:43;;;;;;;;;;;25.50;60.30;;;;;;5029175;28;20000;-84
2022/08/17 12:34:17;;;;;;;;;;;25.60;59.90;;;;;;5042009;28;19928;-84
2022/08/17 12:36:44;;;;;;;;;;;25.70;59.30;;;;;;5032346;28;19920;-89
2022/08/17 12:39:09;;;;;;;;;;;25.80;59.30;;;;;;5033161;28;19917;-85
2022/08/17 12:41:40;;;;;;;;;;;25.90;59.40;;;;;;5022731;28;19917;-85
2022/08/17 12:44:20;;;;;;;;;;;26.00;59.10;;;;;;5026086;28;19923;-84
2022/08/17 12:47:02;;;;;;;;;;;26.10;59.00;;;;;;5031747;28;20387;-84
2022/08/17 12:49:29;;;;;;;;;;;26.10;58.70;;;;;;5029979;28;19917;-85
2022/08/17 12:52:01;;;;;;;;;;;26.30;58.40;;;;;;5031423;28;19917;-84
2022/08/17 12:54:30;;;;;;;;;;;26.30;58.00;;;;;;5030400;28;19964;-84
2022/08/17 12:56:58;;;;;;;;;;;26.50;57.70;;;;;;5032004;28;19929;-85
2022/08/17 12:59:24;;;;;;;;;;;26.50;57.70;;;;;;5027715;28;19944;-84
2022/08/17 13:01:50;;;;;;;;;;;26.60;57.80;;;;;;5031814;28;20366;-85
2022/08/17 13:04:15;;;;;;;;;;;26.70;57.00;;;;;;5028307;28;20376;-84
2022/08/17 13:06:53;;;;;;;;;;;26.80;57.10;;;;;;5029298;28;19913;-82
2022/08/17 13:09:20;;;;;;;;;;;26.70;57.20;;;;;;5033107;28;19959;-83
2022/08/17 13:11:51;;;;;;;;;;;26.80;56.70;;;;;;5032101;28;19914;-84
2022/08/17 13:14:17;;;;;;;;;;;26.80;57.20;;;;;;5035258;28;19913;-84
2022/08/17 13:16:48;;;;;;;;;;;27.10;56.50;;;;;;5037443;28;19913;-84
2022/08/17 13:19:14;;;;;;;;;;;27.20;56.10;;;;;;5032054;28;19924;-84
2022/08/17 13:21:47;;;;;;;;;;;27.20;55.70;;;;;;5029437;28;19917;-84
2022/08/17 13:24:42;;;;;;;;;;;27.10;56.30;;;;;;5027725;28;20406;-84
2022/08/17 13:27:10;;;;;;;;;;;27.00;56.40;;;;;;5016432;28;19913;-84
2022/08/17 13:29:45;;;;;;;;;;;26.80;56.70;;;;;;5021951;28;19918;-83
2022/08/17 13:32:11;;;;;;;;;;;26.90;56.20;;;;;;5028091;28;20323;-82
2022/08/17 13:34:40;;;;;;;;;;;26.80;57.20;;;;;;5023961;28;19927;-83
2022/08/17 13:37:16;;;;;;;;;;;26.60;56.70;;;;;;5032079;28;19988;-85
2022/08/17 13:39:42;;;;;;;;;;;26.60;57.30;;;;;;5029217;28;19920;-86
2022/08/17 13:42:26;;;;;;;;;;;26.60;57.30;;;;;;5033287;28;19925;-85
2022/08/17 13:44:52;;;;;;;;;;;26.60;57.20;;;;;;5023243;28;19996;-85
2022/08/17 13:47:18;;;;;;;;;;;26.50;58.20;;;;;;5025097;28;20016;-86
2022/08/17 13:49:44;;;;;;;;;;;26.50;58.00;;;;;;5030573;28;19924;-86
2022/08/17 13:52:29;;;;;;;;;;;26.50;57.80;;;;;;5021434;28;20261;-85
2022/08/17 13:54:55;;;;;;;;;;;26.60;57.20;;;;;;5030124;28;20009;-86
2022/08/17 13:57:22;;;;;;;;;;;26.70;57.20;;;;;;5029914;28;20027;-86
2022/08/17 13:59:48;;;;;;;;;;;26.60;58.00;;;;;;5030642;28;20066;-87
2022/08/17 14:02:15;;;;;;;;;;;26.60;57.50;;;;;;5024018;28;19943;-86
2022/08/17 14:04:42;;;;;;;;;;;26.70;57.80;;;;;;5024199;28;19945;-85
2022/08/17 14:07:07;;;;;;;;;;;26.70;57.10;;;;;;5033493;28;19936;-86
2022/08/17 14:09:53;;;;;;;;;;;26.70;57.90;;;;;;5034883;28;19913;-85
2022/08/17 14:12:23;;;;;;;;;;;26.80;58.50;;;;;;5015921;28;19933;-85
2022/08/17 14:14:50;;;;;;;;;;;26.70;56.90;;;;;;5036478;28;20007;-86
2022/08/17 14:17:15;;;;;;;;;;;26.60;57.40;;;;;;5038341;28;20379;-85
2022/08/17 14:19:43;;;;;;;;;;;27.00;57.20;;;;;;5031966;28;19913;-86
2022/08/17 14:22:13;;;;;;;;;;;26.90;57.60;;;;;;5027973;28;19963;-88
2022/08/17 14:24:39;;;;;;;;;;;26.80;57.30;;;;;;5019449;28;19913;-86
2022/08/17 14:27:06;;;;;;;;;;;26.80;57.80;;;;;;5027069;28;19918;-87
2022/08/17 14:29:33;;;;;;;;;;;26.80;57.40;;;;;;5024366;28;19914;-85
2022/08/17 14:32:01;;;;;;;;;;;26.70;58.40;;;;;;5030102;28;19913;-84
2022/08/17 14:34:27;;;;;;;;;;;26.90;57.60;;;;;;5023625;28;19924;-86
2022/08/17 14:36:52;;;;;;;;;;;26.90;57.80;;;;;;5018431;28;19909;-85
2022/08/17 14:39:18;;;;;;;;;;;27.00;58.30;;;;;;5024891;28;19917;-84
2022/08/17 14:41:44;;;;;;;;;;;27.00;57.40;;;;;;5035609;28;20451;-84
2022/08/17 14:44:12;;;;;;;;;;;27.00;56.80;;;;;;5033629;28;19960;-85
2022/08/17 14:46:39;;;;;;;;;;;26.90;57.10;;;;;;5044017;28;19902;-84
2022/08/17 14:49:05;;;;;;;;;;;26.90;57.80;;;;;;5030995;28;19943;-84
2022/08/17 14:51:30;;;;;;;;;;;27.00;57.60;;;;;;5020606;28;19925;-84
2022/08/17 14:53:56;;;;;;;;;;;27.00;58.00;;;;;;5028421;28;19921;-85
2022/08/17 14:56:22;;;;;;;;;;;27.00;58.40;;;;;;5029568;28;19920;-86
2022/08/17 14:58:47;;;;;;;;;;;26.90;58.60;;;;;;5027817;28;19997;-85
2022/08/17 15:01:13;;;;;;;;;;;27.00;58.50;;;;;;5031420;28;20315;-84
2022/08/17 15:03:40;;;;;;;;;;;26.90;58.60;;;;;;5029860;28;19949;-84